sensor_id;sensor_type;location;lat;lon;timestamp;P1;durP1;ratioP1;P2;durP2;ratioP2
43933;SDS011;59081;42.706;23.306;2024-03-22T00:02:55;28.25;;;13.23;;
43933;SDS011;59081;42.706;23.306;2024-03-22T00:07:56;30.50;;;16.88;;
43933;SDS011;59081;42.706;23.306;2024-03-22T00:12:56;33.95;;;16.25;;
43933;SDS011;59081;42.706;23.306;2024-03-22T00:17:57;32.42;;;15.40;;
43933;SDS011;59081;42.706;23.306;2024-03-22T00:22:57;31.13;;;16.00;;
43933;SDS011;59081;42.706;23.306;2024-03-22T00:27:58;27.20;;;12.77;;
43933;SDS011;59081;42.706;23.306;2024-03-22T00:32:58;34.58;;;16.50;;
43933;SDS011;59081;42.706;23.306;2024-03-22T00:37:59;31.15;;;15.82;;
43933;SDS011;59081;42.706;23.306;2024-03-22T00:43:00;32.83;;;15.23;;
43933;SDS011;59081;42.706;23.306;2024-03-22T00:48:00;35.53;;;17.08;;
43933;SDS011;59081;42.706;23.306;2024-03-22T00:53:01;35.55;;;18.42;;
43933;SDS011;59081;42.706;23.306;2024-03-22T00:58:12;37.22;;;18.73;;
43933;SDS011;59081;42.706;23.306;2024-03-22T01:03:12;31.20;;;15.82;;
43933;SDS011;59081;42.706;23.306;2024-03-22T01:08:13;30.42;;;15.75;;
43933;SDS011;59081;42.706;23.306;2024-03-22T01:13:14;25.67;;;11.90;;
43933;SDS011;59081;42.706;23.306;2024-03-22T01:18:15;24.15;;;11.65;;
43933;SDS011;59081;42.706;23.306;2024-03-22T01:23:15;23.45;;;12.07;;
43933;SDS011;59081;42.706;23.306;2024-03-22T01:28:16;26.90;;;11.52;;
43933;SDS011;59081;42.706;23.306;2024-03-22T01:33:17;26.13;;;12.52;;
43933;SDS011;59081;42.706;23.306;2024-03-22T01:38:17;33.17;;;14.63;;
43933;SDS011;59081;42.706;23.306;2024-03-22T01:43:18;29.60;;;13.95;;
43933;SDS011;59081;42.706;23.306;2024-03-22T01:48:19;31.80;;;13.15;;
43933;SDS011;59081;42.706;23.306;2024-03-22T01:53:20;24.40;;;13.32;;
43933;SDS011;59081;42.706;23.306;2024-03-22T01:58:22;30.23;;;13.50;;
43933;SDS011;59081;42.706;23.306;2024-03-22T02:03:23;29.02;;;14.18;;
43933;SDS011;59081;42.706;23.306;2024-03-22T02:08:23;25.50;;;12.05;;
43933;SDS011;59081;42.706;23.306;2024-03-22T02:13:24;21.80;;;10.88;;
43933;SDS011;59081;42.706;23.306;2024-03-22T02:18:24;26.42;;;11.60;;
43933;SDS011;59081;42.706;23.306;2024-03-22T02:23:32;27.15;;;11.38;;
43933;SDS011;59081;42.706;23.306;2024-03-22T02:28:37;23.00;;;11.05;;
43933;SDS011;59081;42.706;23.306;2024-03-22T02:33:37;24.38;;;11.98;;
43933;SDS011;59081;42.706;23.306;2024-03-22T02:38:38;22.65;;;10.98;;
43933;SDS011;59081;42.706;23.306;2024-03-22T02:43:38;24.98;;;12.10;;
43933;SDS011;59081;42.706;23.306;2024-03-22T02:48:39;26.23;;;11.95;;
43933;SDS011;59081;42.706;23.306;2024-03-22T02:53:40;20.73;;;9.90;;
43933;SDS011;59081;42.706;23.306;2024-03-22T02:58:41;21.80;;;10.13;;
43933;SDS011;59081;42.706;23.306;2024-03-22T03:03:42;21.60;;;9.80;;
43933;SDS011;59081;42.706;23.306;2024-03-22T03:08:42;21.52;;;11.65;;
43933;SDS011;59081;42.706;23.306;2024-03-22T03:13:43;20.80;;;10.88;;
43933;SDS011;59081;42.706;23.306;2024-03-22T03:18:44;30.00;;;13.77;;
43933;SDS011;59081;42.706;23.306;2024-03-22T03:23:44;29.65;;;15.18;;
43933;SDS011;59081;42.706;23.306;2024-03-22T03:28:45;42.20;;;19.05;;
43933;SDS011;59081;42.706;23.306;2024-03-22T03:33:45;31.02;;;14.35;;
43933;SDS011;59081;42.706;23.306;2024-03-22T03:38:46;26.35;;;11.90;;
43933;SDS011;59081;42.706;23.306;2024-03-22T03:43:47;17.08;;;10.57;;
43933;SDS011;59081;42.706;23.306;2024-03-22T03:48:47;31.88;;;14.20;;
43933;SDS011;59081;42.706;23.306;2024-03-22T03:53:48;25.42;;;11.35;;
43933;SDS011;59081;42.706;23.306;2024-03-22T03:58:48;24.25;;;12.05;;
43933;SDS011;59081;42.706;23.306;2024-03-22T04:03:49;17.70;;;10.40;;
43933;SDS011;59081;42.706;23.306;2024-03-22T04:08:57;20.30;;;9.38;;
43933;SDS011;59081;42.706;23.306;2024-03-22T04:14:08;20.05;;;8.98;;
43933;SDS011;59081;42.706;23.306;2024-03-22T04:19:09;21.30;;;9.93;;
43933;SDS011;59081;42.706;23.306;2024-03-22T04:24:10;23.40;;;9.23;;
43933;SDS011;59081;42.706;23.306;2024-03-22T04:29:10;27.23;;;11.05;;
43933;SDS011;59081;42.706;23.306;2024-03-22T04:34:11;18.20;;;10.20;;
43933;SDS011;59081;42.706;23.306;2024-03-22T04:39:11;20.40;;;9.30;;
43933;SDS011;59081;42.706;23.306;2024-03-22T04:44:13;24.05;;;11.45;;
43933;SDS011;59081;42.706;23.306;2024-03-22T04:49:14;21.80;;;10.85;;
43933;SDS011;59081;42.706;23.306;2024-03-22T04:54:15;23.05;;;9.32;;
43933;SDS011;59081;42.706;23.306;2024-03-22T04:59:16;19.30;;;10.10;;
43933;SDS011;59081;42.706;23.306;2024-03-22T05:04:16;22.52;;;10.07;;
43933;SDS011;59081;42.706;23.306;2024-03-22T05:09:20;27.48;;;10.80;;
43933;SDS011;59081;42.706;23.306;2024-03-22T05:14:20;23.98;;;10.45;;
43933;SDS011;59081;42.706;23.306;2024-03-22T05:19:24;21.95;;;9.70;;
43933;SDS011;59081;42.706;23.306;2024-03-22T05:24:25;21.40;;;10.35;;
43933;SDS011;59081;42.706;23.306;2024-03-22T05:29:25;19.52;;;10.02;;
43933;SDS011;59081;42.706;23.306;2024-03-22T05:34:26;25.25;;;10.93;;
43933;SDS011;59081;42.706;23.306;2024-03-22T05:39:27;26.63;;;11.52;;
43933;SDS011;59081;42.706;23.306;2024-03-22T05:44:28;24.95;;;11.27;;
43933;SDS011;59081;42.706;23.306;2024-03-22T05:49:28;25.50;;;11.88;;
43933;SDS011;59081;42.706;23.306;2024-03-22T05:54:29;21.63;;;10.88;;
43933;SDS011;59081;42.706;23.306;2024-03-22T05:59:30;21.27;;;11.07;;
43933;SDS011;59081;42.706;23.306;2024-03-22T06:04:31;23.33;;;11.27;;
43933;SDS011;59081;42.706;23.306;2024-03-22T06:09:32;23.73;;;11.85;;
43933;SDS011;59081;42.706;23.306;2024-03-22T06:14:46;26.23;;;13.05;;
43933;SDS011;59081;42.706;23.306;2024-03-22T06:19:48;27.03;;;13.40;;
43933;SDS011;59081;42.706;23.306;2024-03-22T06:24:48;23.30;;;10.98;;
43933;SDS011;59081;42.706;23.306;2024-03-22T06:29:49;21.25;;;10.50;;
43933;SDS011;59081;42.706;23.306;2024-03-22T06:34:50;30.58;;;12.25;;
43933;SDS011;59081;42.706;23.306;2024-03-22T06:39:50;22.90;;;10.60;;
43933;SDS011;59081;42.706;23.306;2024-03-22T06:44:51;21.65;;;9.13;;
43933;SDS011;59081;42.706;23.306;2024-03-22T06:49:51;15.38;;;8.98;;
43933;SDS011;59081;42.706;23.306;2024-03-22T06:54:53;26.58;;;12.43;;
43933;SDS011;59081;42.706;23.306;2024-03-22T06:59:53;28.23;;;12.82;;
43933;SDS011;59081;42.706;23.306;2024-03-22T07:04:56;22.65;;;10.73;;
43933;SDS011;59081;42.706;23.306;2024-03-22T07:09:57;18.13;;;9.13;;
43933;SDS011;59081;42.706;23.306;2024-03-22T07:14:59;31.38;;;9.90;;
43933;SDS011;59081;42.706;23.306;2024-03-22T07:20:02;15.85;;;8.50;;
43933;SDS011;59081;42.706;23.306;2024-03-22T07:25:04;15.23;;;9.00;;
43933;SDS011;59081;42.706;23.306;2024-03-22T07:30:05;17.98;;;9.00;;
43933;SDS011;59081;42.706;23.306;2024-03-22T07:35:06;18.95;;;9.75;;
43933;SDS011;59081;42.706;23.306;2024-03-22T07:40:09;15.38;;;7.57;;
43933;SDS011;59081;42.706;23.306;2024-03-22T07:45:10;16.75;;;7.50;;
43933;SDS011;59081;42.706;23.306;2024-03-22T07:50:11;18.40;;;7.32;;
43933;SDS011;59081;42.706;23.306;2024-03-22T07:55:11;12.05;;;5.88;;
43933;SDS011;59081;42.706;23.306;2024-03-22T08:00:12;11.98;;;5.57;;
43933;SDS011;59081;42.706;23.306;2024-03-22T08:05:13;12.32;;;6.05;;
43933;SDS011;59081;42.706;23.306;2024-03-22T08:10:13;8.70;;;5.57;;
43933;SDS011;59081;42.706;23.306;2024-03-22T08:15:15;6.47;;;3.10;;
43933;SDS011;59081;42.706;23.306;2024-03-22T08:20:16;7.65;;;4.57;;
43933;SDS011;59081;42.706;23.306;2024-03-22T08:25:17;8.25;;;4.18;;
43933;SDS011;59081;42.706;23.306;2024-03-22T08:30:18;6.80;;;3.65;;
43933;SDS011;59081;42.706;23.306;2024-03-22T08:35:18;7.15;;;3.88;;
43933;SDS011;59081;42.706;23.306;2024-03-22T08:40:19;10.38;;;4.18;;
43933;SDS011;59081;42.706;23.306;2024-03-22T08:45:19;6.00;;;3.88;;
43933;SDS011;59081;42.706;23.306;2024-03-22T08:50:20;4.25;;;2.70;;
43933;SDS011;59081;42.706;23.306;2024-03-22T08:55:21;7.28;;;3.83;;
43933;SDS011;59081;42.706;23.306;2024-03-22T09:00:21;9.50;;;4.18;;
43933;SDS011;59081;42.706;23.306;2024-03-22T09:05:22;7.72;;;3.47;;
43933;SDS011;59081;42.706;23.306;2024-03-22T09:10:22;7.10;;;2.45;;
43933;SDS011;59081;42.706;23.306;2024-03-22T09:15:23;5.93;;;3.65;;
43933;SDS011;59081;42.706;23.306;2024-03-22T09:20:24;7.47;;;4.00;;
43933;SDS011;59081;42.706;23.306;2024-03-22T09:25:25;6.07;;;3.30;;
43933;SDS011;59081;42.706;23.306;2024-03-22T09:30:25;4.43;;;3.45;;
43933;SDS011;59081;42.706;23.306;2024-03-22T09:35:26;4.82;;;2.92;;
43933;SDS011;59081;42.706;23.306;2024-03-22T09:40:27;6.45;;;3.35;;
43933;SDS011;59081;42.706;23.306;2024-03-22T09:45:28;5.40;;;3.05;;
43933;SDS011;59081;42.706;23.306;2024-03-22T09:50:29;7.70;;;4.32;;
43933;SDS011;59081;42.706;23.306;2024-03-22T09:55:30;5.50;;;2.90;;
43933;SDS011;59081;42.706;23.306;2024-03-22T10:00:32;7.40;;;3.40;;
43933;SDS011;59081;42.706;23.306;2024-03-22T10:05:33;7.03;;;3.47;;
43933;SDS011;59081;42.706;23.306;2024-03-22T10:10:34;4.75;;;3.13;;
43933;SDS011;59081;42.706;23.306;2024-03-22T10:15:35;3.97;;;3.08;;
43933;SDS011;59081;42.706;23.306;2024-03-22T10:20:35;4.50;;;2.83;;
43933;SDS011;59081;42.706;23.306;2024-03-22T10:25:36;10.43;;;3.65;;
43933;SDS011;59081;42.706;23.306;2024-03-22T10:30:36;5.18;;;3.60;;
43933;SDS011;59081;42.706;23.306;2024-03-22T10:35:40;6.60;;;2.92;;
43933;SDS011;59081;42.706;23.306;2024-03-22T10:40:44;4.45;;;3.03;;
43933;SDS011;59081;42.706;23.306;2024-03-22T10:45:49;4.93;;;3.28;;
43933;SDS011;59081;42.706;23.306;2024-03-22T10:50:52;6.15;;;2.83;;
43933;SDS011;59081;42.706;23.306;2024-03-22T10:55:55;8.40;;;2.90;;
43933;SDS011;59081;42.706;23.306;2024-03-22T11:00:59;3.47;;;2.85;;
43933;SDS011;59081;42.706;23.306;2024-03-22T11:06:00;4.68;;;2.42;;
43933;SDS011;59081;42.706;23.306;2024-03-22T11:11:11;3.08;;;2.28;;
43933;SDS011;59081;42.706;23.306;2024-03-22T11:16:12;9.85;;;2.75;;
43933;SDS011;59081;42.706;23.306;2024-03-22T11:21:17;4.30;;;2.72;;
43933;SDS011;59081;42.706;23.306;2024-03-22T11:26:19;5.07;;;2.83;;
43933;SDS011;59081;42.706;23.306;2024-03-22T11:31:19;5.15;;;3.47;;
43933;SDS011;59081;42.706;23.306;2024-03-22T11:36:25;3.13;;;2.17;;
43933;SDS011;59081;42.706;23.306;2024-03-22T11:41:26;3.97;;;2.85;;
43933;SDS011;59081;42.706;23.306;2024-03-22T11:46:31;3.28;;;2.50;;
43933;SDS011;59081;42.706;23.306;2024-03-22T11:51:32;4.47;;;2.80;;
43933;SDS011;59081;42.706;23.306;2024-03-22T11:56:34;8.45;;;1.98;;
43933;SDS011;59081;42.706;23.306;2024-03-22T12:01:35;7.28;;;3.00;;
43933;SDS011;59081;42.706;23.306;2024-03-22T12:06:35;6.45;;;2.58;;
43933;SDS011;59081;42.706;23.306;2024-03-22T12:11:36;5.45;;;3.17;;
43933;SDS011;59081;42.706;23.306;2024-03-22T12:16:37;4.57;;;2.60;;
43933;SDS011;59081;42.706;23.306;2024-03-22T12:21:37;4.32;;;2.50;;
43933;SDS011;59081;42.706;23.306;2024-03-22T12:26:38;5.15;;;2.95;;
43933;SDS011;59081;42.706;23.306;2024-03-22T12:31:38;4.65;;;2.65;;
43933;SDS011;59081;42.706;23.306;2024-03-22T12:36:39;5.25;;;2.97;;
43933;SDS011;59081;42.706;23.306;2024-03-22T12:41:42;5.78;;;3.25;;
43933;SDS011;59081;42.706;23.306;2024-03-22T12:46:42;6.88;;;2.92;;
43933;SDS011;59081;42.706;23.306;2024-03-22T12:51:44;7.60;;;3.10;;
43933;SDS011;59081;42.706;23.306;2024-03-22T12:56:51;4.88;;;2.80;;
43933;SDS011;59081;42.706;23.306;2024-03-22T13:01:51;6.47;;;3.13;;
43933;SDS011;59081;42.706;23.306;2024-03-22T13:06:53;6.75;;;2.90;;
43933;SDS011;59081;42.706;23.306;2024-03-22T13:11:54;5.55;;;2.70;;
43933;SDS011;59081;42.706;23.306;2024-03-22T13:16:54;5.43;;;2.78;;
43933;SDS011;59081;42.706;23.306;2024-03-22T13:21:55;5.30;;;2.22;;
43933;SDS011;59081;42.706;23.306;2024-03-22T13:26:55;4.88;;;2.58;;
43933;SDS011;59081;42.706;23.306;2024-03-22T13:31:56;4.60;;;2.70;;
43933;SDS011;59081;42.706;23.306;2024-03-22T13:36:57;7.53;;;2.75;;
43933;SDS011;59081;42.706;23.306;2024-03-22T13:41:58;5.25;;;2.72;;
43933;SDS011;59081;42.706;23.306;2024-03-22T13:46:58;3.70;;;2.60;;
43933;SDS011;59081;42.706;23.306;2024-03-22T13:51:59;4.47;;;2.70;;
43933;SDS011;59081;42.706;23.306;2024-03-22T13:57:00;5.30;;;2.90;;
43933;SDS011;59081;42.706;23.306;2024-03-22T14:02:01;6.10;;;2.30;;
43933;SDS011;59081;42.706;23.306;2024-03-22T14:07:02;3.22;;;1.70;;
43933;SDS011;59081;42.706;23.306;2024-03-22T14:12:06;5.05;;;2.38;;
43933;SDS011;59081;42.706;23.306;2024-03-22T14:17:06;5.55;;;2.50;;
43933;SDS011;59081;42.706;23.306;2024-03-22T14:22:07;4.38;;;2.67;;
43933;SDS011;59081;42.706;23.306;2024-03-22T14:27:08;3.67;;;2.50;;
43933;SDS011;59081;42.706;23.306;2024-03-22T14:32:09;4.38;;;2.85;;
43933;SDS011;59081;42.706;23.306;2024-03-22T14:37:09;8.30;;;2.65;;
43933;SDS011;59081;42.706;23.306;2024-03-22T14:42:10;8.68;;;3.50;;
43933;SDS011;59081;42.706;23.306;2024-03-22T14:47:11;7.13;;;3.30;;
43933;SDS011;59081;42.706;23.306;2024-03-22T14:52:11;5.20;;;3.22;;
43933;SDS011;59081;42.706;23.306;2024-03-22T14:57:13;8.70;;;3.72;;
43933;SDS011;59081;42.706;23.306;2024-03-22T15:02:14;6.40;;;3.28;;
43933;SDS011;59081;42.706;23.306;2024-03-22T15:07:15;5.78;;;3.10;;
43933;SDS011;59081;42.706;23.306;2024-03-22T15:12:16;7.22;;;3.38;;
43933;SDS011;59081;42.706;23.306;2024-03-22T15:17:16;5.13;;;3.10;;
43933;SDS011;59081;42.706;23.306;2024-03-22T15:22:22;7.95;;;2.80;;
43933;SDS011;59081;42.706;23.306;2024-03-22T15:27:23;7.80;;;3.38;;
43933;SDS011;59081;42.706;23.306;2024-03-22T15:32:25;7.37;;;3.23;;
43933;SDS011;59081;42.706;23.306;2024-03-22T15:37:26;6.30;;;3.35;;
43933;SDS011;59081;42.706;23.306;2024-03-22T15:42:26;5.20;;;2.67;;
43933;SDS011;59081;42.706;23.306;2024-03-22T15:47:30;9.13;;;3.53;;
43933;SDS011;59081;42.706;23.306;2024-03-22T15:52:33;4.93;;;3.45;;
43933;SDS011;59081;42.706;23.306;2024-03-22T15:57:35;7.03;;;3.85;;
43933;SDS011;59081;42.706;23.306;2024-03-22T16:02:35;10.85;;;3.72;;
43933;SDS011;59081;42.706;23.306;2024-03-22T16:07:38;9.20;;;3.88;;
43933;SDS011;59081;42.706;23.306;2024-03-22T16:12:41;7.63;;;4.15;;
43933;SDS011;59081;42.706;23.306;2024-03-22T16:17:44;8.13;;;4.25;;
43933;SDS011;59081;42.706;23.306;2024-03-22T16:22:45;10.88;;;3.70;;
43933;SDS011;59081;42.706;23.306;2024-03-22T16:27:46;5.10;;;3.55;;
43933;SDS011;59081;42.706;23.306;2024-03-22T16:32:49;9.18;;;4.93;;
43933;SDS011;59081;42.706;23.306;2024-03-22T16:37:53;6.70;;;4.43;;
43933;SDS011;59081;42.706;23.306;2024-03-22T16:42:53;9.65;;;4.40;;
43933;SDS011;59081;42.706;23.306;2024-03-22T16:47:54;6.95;;;4.40;;
43933;SDS011;59081;42.706;23.306;2024-03-22T16:52:54;10.95;;;3.65;;
43933;SDS011;59081;42.706;23.306;2024-03-22T16:57:55;7.65;;;3.97;;
43933;SDS011;59081;42.706;23.306;2024-03-22T17:03:00;7.32;;;3.85;;
43933;SDS011;59081;42.706;23.306;2024-03-22T17:08:01;9.00;;;4.32;;
43933;SDS011;59081;42.706;23.306;2024-03-22T17:13:05;9.32;;;5.10;;
43933;SDS011;59081;42.706;23.306;2024-03-22T17:18:05;8.95;;;5.07;;
43933;SDS011;59081;42.706;23.306;2024-03-22T17:23:06;6.97;;;3.30;;
43933;SDS011;59081;42.706;23.306;2024-03-22T17:28:06;11.93;;;3.80;;
43933;SDS011;59081;42.706;23.306;2024-03-22T17:33:08;6.68;;;3.95;;
43933;SDS011;59081;42.706;23.306;2024-03-22T17:38:09;7.47;;;4.43;;
43933;SDS011;59081;42.706;23.306;2024-03-22T17:43:10;9.82;;;5.10;;
43933;SDS011;59081;42.706;23.306;2024-03-22T17:48:10;9.20;;;4.32;;
43933;SDS011;59081;42.706;23.306;2024-03-22T17:53:13;8.88;;;4.72;;
43933;SDS011;59081;42.706;23.306;2024-03-22T18:03:14;12.18;;;5.07;;
43933;SDS011;59081;42.706;23.306;2024-03-22T18:08:15;9.55;;;5.28;;
43933;SDS011;59081;42.706;23.306;2024-03-22T18:13:16;16.52;;;6.90;;
43933;SDS011;59081;42.706;23.306;2024-03-22T18:18:16;12.30;;;7.28;;
43933;SDS011;59081;42.706;23.306;2024-03-22T18:23:17;12.18;;;4.97;;
43933;SDS011;59081;42.706;23.306;2024-03-22T18:28:18;9.00;;;5.28;;
43933;SDS011;59081;42.706;23.306;2024-03-22T18:33:19;11.48;;;5.05;;
43933;SDS011;59081;42.706;23.306;2024-03-22T18:38:20;11.02;;;5.28;;
43933;SDS011;59081;42.706;23.306;2024-03-22T18:43:24;9.07;;;5.57;;
43933;SDS011;59081;42.706;23.306;2024-03-22T18:48:24;11.15;;;5.25;;
43933;SDS011;59081;42.706;23.306;2024-03-22T18:53:25;9.52;;;4.53;;
43933;SDS011;59081;42.706;23.306;2024-03-22T18:58:26;13.23;;;5.50;;
43933;SDS011;59081;42.706;23.306;2024-03-22T19:03:27;11.25;;;5.05;;
43933;SDS011;59081;42.706;23.306;2024-03-22T19:08:27;13.75;;;5.80;;
43933;SDS011;59081;42.706;23.306;2024-03-22T19:13:28;8.43;;;4.50;;
43933;SDS011;59081;42.706;23.306;2024-03-22T19:18:29;8.85;;;5.32;;
43933;SDS011;59081;42.706;23.306;2024-03-22T19:23:29;9.48;;;4.57;;
43933;SDS011;59081;42.706;23.306;2024-03-22T19:28:30;9.13;;;5.43;;
43933;SDS011;59081;42.706;23.306;2024-03-22T19:33:30;18.15;;;5.90;;
43933;SDS011;59081;42.706;23.306;2024-03-22T19:38:34;11.10;;;5.43;;
43933;SDS011;59081;42.706;23.306;2024-03-22T19:43:34;13.20;;;7.20;;
43933;SDS011;59081;42.706;23.306;2024-03-22T19:48:35;12.18;;;6.15;;
43933;SDS011;59081;42.706;23.306;2024-03-22T19:53:36;14.85;;;7.43;;
43933;SDS011;59081;42.706;23.306;2024-03-22T19:58:36;10.80;;;5.90;;
43933;SDS011;59081;42.706;23.306;2024-03-22T20:03:37;21.17;;;7.22;;
43933;SDS011;59081;42.706;23.306;2024-03-22T20:08:37;14.80;;;7.40;;
43933;SDS011;59081;42.706;23.306;2024-03-22T20:13:38;16.55;;;8.82;;
43933;SDS011;59081;42.706;23.306;2024-03-22T20:18:39;17.90;;;8.13;;
43933;SDS011;59081;42.706;23.306;2024-03-22T20:28:42;28.23;;;11.07;;
43933;SDS011;59081;42.706;23.306;2024-03-22T20:33:45;23.65;;;10.10;;
